sensor_id;sensor_type;location;lat;lon;timestamp;P1;durP1;ratioP1;P2;durP2;ratioP2
8317;SDS011;4196;48.926;8.964;2023-02-13T00:01:35;22.63;;;11.23;;
8317;SDS011;4196;48.926;8.964;2023-02-13T00:04:22;21.87;;;11.27;;
8317;SDS011;4196;48.926;8.964;2023-02-13T00:07:09;18.33;;;9.40;;
8317;SDS011;4196;48.926;8.964;2023-02-13T00:09:56;19.40;;;10.27;;
8317;SDS011;4196;48.926;8.964;2023-02-13T00:12:43;20.80;;;10.13;;
8317;SDS011;4196;48.926;8.964;2023-02-13T00:15:29;16.17;;;9.17;;
8317;SDS011;4196;48.926;8.964;2023-02-13T00:18:16;22.30;;;10.30;;
8317;SDS011;4196;48.926;8.964;2023-02-13T00:21:03;18.20;;;9.80;;
8317;SDS011;4196;48.926;8.964;2023-02-13T00:23:55;17.37;;;9.27;;
8317;SDS011;4196;48.926;8.964;2023-02-13T00:26:41;19.93;;;11.20;;
8317;SDS011;4196;48.926;8.964;2023-02-13T00:29:28;19.77;;;11.10;;
8317;SDS011;4196;48.926;8.964;2023-02-13T00:32:14;24.87;;;10.80;;
8317;SDS011;4196;48.926;8.964;2023-02-13T00:35:00;27.77;;;13.03;;
8317;SDS011;4196;48.926;8.964;2023-02-13T00:37:48;22.90;;;12.70;;
8317;SDS011;4196;48.926;8.964;2023-02-13T00:40:35;25.23;;;11.97;;
8317;SDS011;4196;48.926;8.964;2023-02-13T00:43:21;26.00;;;11.30;;
8317;SDS011;4196;48.926;8.964;2023-02-13T00:46:08;24.27;;;11.03;;
8317;SDS011;4196;48.926;8.964;2023-02-13T00:48:54;21.83;;;10.87;;
8317;SDS011;4196;48.926;8.964;2023-02-13T00:51:41;19.53;;;9.63;;
8317;SDS011;4196;48.926;8.964;2023-02-13T00:54:27;24.50;;;11.07;;
8317;SDS011;4196;48.926;8.964;2023-02-13T00:57:13;23.97;;;11.60;;
8317;SDS011;4196;48.926;8.964;2023-02-13T01:00:01;23.20;;;12.80;;
8317;SDS011;4196;48.926;8.964;2023-02-13T01:02:47;25.87;;;11.20;;
8317;SDS011;4196;48.926;8.964;2023-02-13T01:05:33;23.40;;;11.23;;
8317;SDS011;4196;48.926;8.964;2023-02-13T01:08:21;22.60;;;12.57;;
8317;SDS011;4196;48.926;8.964;2023-02-13T01:11:07;28.60;;;12.83;;
8317;SDS011;4196;48.926;8.964;2023-02-13T01:13:54;22.20;;;11.83;;
8317;SDS011;4196;48.926;8.964;2023-02-13T01:16:40;23.83;;;12.07;;
8317;SDS011;4196;48.926;8.964;2023-02-13T01:19:26;25.10;;;12.77;;
8317;SDS011;4196;48.926;8.964;2023-02-13T01:22:12;19.37;;;10.77;;
8317;SDS011;4196;48.926;8.964;2023-02-13T01:24:59;25.87;;;11.93;;
8317;SDS011;4196;48.926;8.964;2023-02-13T01:27:49;17.40;;;11.37;;
8317;SDS011;4196;48.926;8.964;2023-02-13T01:30:35;17.67;;;11.10;;
8317;SDS011;4196;48.926;8.964;2023-02-13T01:33:22;24.47;;;11.30;;
8317;SDS011;4196;48.926;8.964;2023-02-13T01:36:10;21.30;;;12.53;;
8317;SDS011;4196;48.926;8.964;2023-02-13T01:38:57;27.20;;;11.27;;
8317;SDS011;4196;48.926;8.964;2023-02-13T01:41:44;24.97;;;12.93;;
8317;SDS011;4196;48.926;8.964;2023-02-13T01:44:47;24.70;;;11.30;;
8317;SDS011;4196;48.926;8.964;2023-02-13T01:47:40;20.00;;;11.20;;
8317;SDS011;4196;48.926;8.964;2023-02-13T01:50:31;23.80;;;10.93;;
8317;SDS011;4196;48.926;8.964;2023-02-13T01:53:21;24.97;;;12.17;;
8317;SDS011;4196;48.926;8.964;2023-02-13T01:56:20;21.43;;;11.37;;
8317;SDS011;4196;48.926;8.964;2023-02-13T01:59:24;25.17;;;10.70;;
8317;SDS011;4196;48.926;8.964;2023-02-13T02:02:15;23.90;;;10.67;;
8317;SDS011;4196;48.926;8.964;2023-02-13T02:05:03;21.70;;;10.87;;
8317;SDS011;4196;48.926;8.964;2023-02-13T02:07:52;19.07;;;10.23;;
8317;SDS011;4196;48.926;8.964;2023-02-13T02:10:41;21.40;;;11.47;;
8317;SDS011;4196;48.926;8.964;2023-02-13T02:13:28;19.63;;;9.80;;
8317;SDS011;4196;48.926;8.964;2023-02-13T02:16:21;19.53;;;10.10;;
8317;SDS011;4196;48.926;8.964;2023-02-13T02:19:12;18.23;;;10.23;;
8317;SDS011;4196;48.926;8.964;2023-02-13T02:28:25;26.37;;;13.67;;
8317;SDS011;4196;48.926;8.964;2023-02-13T02:38:17;19.97;;;10.97;;
8317;SDS011;4196;48.926;8.964;2023-02-13T02:41:15;24.63;;;11.47;;
8317;SDS011;4196;48.926;8.964;2023-02-13T02:50:25;22.27;;;11.70;;
8317;SDS011;4196;48.926;8.964;2023-02-13T02:56:39;19.93;;;10.43;;
8317;SDS011;4196;48.926;8.964;2023-02-13T02:59:29;23.20;;;10.93;;
8317;SDS011;4196;48.926;8.964;2023-02-13T03:02:36;19.67;;;10.50;;
8317;SDS011;4196;48.926;8.964;2023-02-13T03:05:42;22.10;;;11.43;;
8317;SDS011;4196;48.926;8.964;2023-02-13T03:08:51;22.80;;;12.03;;
8317;SDS011;4196;48.926;8.964;2023-02-13T03:11:59;23.37;;;10.60;;
8317;SDS011;4196;48.926;8.964;2023-02-13T03:15:06;22.50;;;10.50;;
8317;SDS011;4196;48.926;8.964;2023-02-13T03:17:53;24.10;;;11.90;;
8317;SDS011;4196;48.926;8.964;2023-02-13T03:21:06;22.90;;;11.17;;
8317;SDS011;4196;48.926;8.964;2023-02-13T03:27:55;28.60;;;11.03;;
8317;SDS011;4196;48.926;8.964;2023-02-13T03:34:10;24.40;;;10.93;;
8317;SDS011;4196;48.926;8.964;2023-02-13T03:37:02;21.50;;;10.93;;
8317;SDS011;4196;48.926;8.964;2023-02-13T03:40:15;22.07;;;11.13;;
8317;SDS011;4196;48.926;8.964;2023-02-13T03:43:09;20.57;;;11.00;;
8317;SDS011;4196;48.926;8.964;2023-02-13T03:45:58;29.63;;;13.77;;
8317;SDS011;4196;48.926;8.964;2023-02-13T03:48:47;25.00;;;11.60;;
8317;SDS011;4196;48.926;8.964;2023-02-13T03:51:54;27.27;;;11.43;;
8317;SDS011;4196;48.926;8.964;2023-02-13T03:54:46;33.53;;;15.30;;
8317;SDS011;4196;48.926;8.964;2023-02-13T03:57:57;29.63;;;13.30;;
8317;SDS011;4196;48.926;8.964;2023-02-13T04:01:07;33.43;;;12.87;;
8317;SDS011;4196;48.926;8.964;2023-02-13T04:03:59;42.17;;;14.50;;
8317;SDS011;4196;48.926;8.964;2023-02-13T04:06:55;33.90;;;13.00;;
8317;SDS011;4196;48.926;8.964;2023-02-13T04:09:46;32.60;;;13.33;;
8317;SDS011;4196;48.926;8.964;2023-02-13T04:12:54;31.50;;;11.47;;
8317;SDS011;4196;48.926;8.964;2023-02-13T04:15:55;30.47;;;13.27;;
8317;SDS011;4196;48.926;8.964;2023-02-13T04:18:48;32.07;;;11.33;;
8317;SDS011;4196;48.926;8.964;2023-02-13T04:21:38;26.97;;;10.83;;
8317;SDS011;4196;48.926;8.964;2023-02-13T04:24:27;25.73;;;11.47;;
8317;SDS011;4196;48.926;8.964;2023-02-13T04:27:14;29.50;;;13.07;;
8317;SDS011;4196;48.926;8.964;2023-02-13T04:30:01;35.67;;;12.50;;
8317;SDS011;4196;48.926;8.964;2023-02-13T04:32:49;37.23;;;12.67;;
8317;SDS011;4196;48.926;8.964;2023-02-13T04:35:37;26.80;;;11.27;;
8317;SDS011;4196;48.926;8.964;2023-02-13T04:38:23;31.10;;;13.90;;
8317;SDS011;4196;48.926;8.964;2023-02-13T04:41:09;34.83;;;13.40;;
8317;SDS011;4196;48.926;8.964;2023-02-13T04:43:56;32.50;;;12.17;;
8317;SDS011;4196;48.926;8.964;2023-02-13T04:46:43;30.97;;;11.47;;
8317;SDS011;4196;48.926;8.964;2023-02-13T04:49:29;27.43;;;10.90;;
8317;SDS011;4196;48.926;8.964;2023-02-13T04:52:15;27.40;;;10.47;;
8317;SDS011;4196;48.926;8.964;2023-02-13T04:55:02;28.13;;;11.30;;
8317;SDS011;4196;48.926;8.964;2023-02-13T04:57:50;30.17;;;11.97;;
8317;SDS011;4196;48.926;8.964;2023-02-13T05:00:39;27.87;;;12.73;;
8317;SDS011;4196;48.926;8.964;2023-02-13T05:03:25;25.77;;;9.63;;
8317;SDS011;4196;48.926;8.964;2023-02-13T05:06:12;19.07;;;9.73;;
8317;SDS011;4196;48.926;8.964;2023-02-13T05:08:58;23.40;;;9.97;;
8317;SDS011;4196;48.926;8.964;2023-02-13T05:11:44;16.27;;;8.50;;
8317;SDS011;4196;48.926;8.964;2023-02-13T05:14:31;20.83;;;8.27;;
8317;SDS011;4196;48.926;8.964;2023-02-13T05:17:17;20.77;;;8.77;;
8317;SDS011;4196;48.926;8.964;2023-02-13T05:20:04;18.03;;;8.80;;
8317;SDS011;4196;48.926;8.964;2023-02-13T05:22:52;25.67;;;9.17;;
8317;SDS011;4196;48.926;8.964;2023-02-13T05:25:58;24.93;;;9.67;;
8317;SDS011;4196;48.926;8.964;2023-02-13T05:28:44;22.53;;;10.27;;
8317;SDS011;4196;48.926;8.964;2023-02-13T05:31:50;13.57;;;7.93;;
8317;SDS011;4196;48.926;8.964;2023-02-13T05:34:38;23.63;;;8.60;;
8317;SDS011;4196;48.926;8.964;2023-02-13T05:37:24;34.70;;;9.97;;
8317;SDS011;4196;48.926;8.964;2023-02-13T05:40:11;24.57;;;10.07;;
8317;SDS011;4196;48.926;8.964;2023-02-13T05:42:58;28.27;;;8.90;;
8317;SDS011;4196;48.926;8.964;2023-02-13T05:45:44;26.90;;;9.40;;
8317;SDS011;4196;48.926;8.964;2023-02-13T05:48:31;18.60;;;7.37;;
8317;SDS011;4196;48.926;8.964;2023-02-13T05:51:18;30.23;;;7.90;;
8317;SDS011;4196;48.926;8.964;2023-02-13T05:54:05;26.20;;;8.17;;
8317;SDS011;4196;48.926;8.964;2023-02-13T05:56:52;31.37;;;9.73;;
8317;SDS011;4196;48.926;8.964;2023-02-13T05:59:38;29.13;;;8.97;;
8317;SDS011;4196;48.926;8.964;2023-02-13T06:02:24;40.40;;;8.47;;
8317;SDS011;4196;48.926;8.964;2023-02-13T06:05:11;21.27;;;9.20;;
8317;SDS011;4196;48.926;8.964;2023-02-13T06:07:57;15.57;;;8.43;;
8317;SDS011;4196;48.926;8.964;2023-02-13T06:10:47;17.10;;;7.53;;
8317;SDS011;4196;48.926;8.964;2023-02-13T06:13:34;14.07;;;7.60;;
8317;SDS011;4196;48.926;8.964;2023-02-13T06:16:21;16.50;;;8.23;;
8317;SDS011;4196;48.926;8.964;2023-02-13T06:19:08;18.23;;;7.73;;
8317;SDS011;4196;48.926;8.964;2023-02-13T06:21:54;21.23;;;7.50;;
8317;SDS011;4196;48.926;8.964;2023-02-13T06:24:41;22.30;;;8.00;;
8317;SDS011;4196;48.926;8.964;2023-02-13T06:27:27;21.73;;;11.13;;
8317;SDS011;4196;48.926;8.964;2023-02-13T06:30:14;15.53;;;8.60;;
8317;SDS011;4196;48.926;8.964;2023-02-13T06:33:01;18.03;;;7.40;;
8317;SDS011;4196;48.926;8.964;2023-02-13T06:35:48;17.73;;;8.77;;
8317;SDS011;4196;48.926;8.964;2023-02-13T06:38:34;23.50;;;8.13;;
8317;SDS011;4196;48.926;8.964;2023-02-13T06:41:20;25.33;;;9.00;;
8317;SDS011;4196;48.926;8.964;2023-02-13T06:44:07;17.93;;;9.50;;
8317;SDS011;4196;48.926;8.964;2023-02-13T06:46:53;17.00;;;8.23;;
8317;SDS011;4196;48.926;8.964;2023-02-13T06:49:39;16.90;;;7.03;;
8317;SDS011;4196;48.926;8.964;2023-02-13T06:52:26;25.40;;;8.77;;
8317;SDS011;4196;48.926;8.964;2023-02-13T06:55:15;10.27;;;6.77;;
8317;SDS011;4196;48.926;8.964;2023-02-13T06:58:02;19.07;;;7.57;;
8317;SDS011;4196;48.926;8.964;2023-02-13T07:00:49;15.63;;;8.20;;
8317;SDS011;4196;48.926;8.964;2023-02-13T07:03:36;14.50;;;8.03;;
8317;SDS011;4196;48.926;8.964;2023-02-13T07:06:23;17.50;;;7.47;;
8317;SDS011;4196;48.926;8.964;2023-02-13T07:09:09;26.53;;;7.80;;
8317;SDS011;4196;48.926;8.964;2023-02-13T07:12:01;24.00;;;7.90;;
8317;SDS011;4196;48.926;8.964;2023-02-13T07:14:48;20.07;;;8.10;;
8317;SDS011;4196;48.926;8.964;2023-02-13T07:17:34;15.97;;;7.40;;
8317;SDS011;4196;48.926;8.964;2023-02-13T07:20:21;17.50;;;7.73;;
8317;SDS011;4196;48.926;8.964;2023-02-13T07:23:07;16.73;;;7.47;;
8317;SDS011;4196;48.926;8.964;2023-02-13T07:25:53;20.87;;;8.00;;
8317;SDS011;4196;48.926;8.964;2023-02-13T07:28:39;19.10;;;7.90;;
8317;SDS011;4196;48.926;8.964;2023-02-13T07:31:26;15.90;;;7.00;;
8317;SDS011;4196;48.926;8.964;2023-02-13T07:34:13;15.37;;;8.07;;
8317;SDS011;4196;48.926;8.964;2023-02-13T07:36:59;16.97;;;7.43;;
8317;SDS011;4196;48.926;8.964;2023-02-13T07:39:45;17.30;;;7.37;;
8317;SDS011;4196;48.926;8.964;2023-02-13T07:42:32;22.50;;;8.83;;
8317;SDS011;4196;48.926;8.964;2023-02-13T07:45:19;22.07;;;8.03;;
8317;SDS011;4196;48.926;8.964;2023-02-13T07:48:06;14.73;;;8.53;;
8317;SDS011;4196;48.926;8.964;2023-02-13T07:50:52;19.37;;;8.03;;
8317;SDS011;4196;48.926;8.964;2023-02-13T07:53:40;16.60;;;7.63;;
8317;SDS011;4196;48.926;8.964;2023-02-13T07:56:26;17.37;;;8.00;;
8317;SDS011;4196;48.926;8.964;2023-02-13T07:59:13;23.87;;;8.03;;
8317;SDS011;4196;48.926;8.964;2023-02-13T08:01:59;19.77;;;8.17;;
8317;SDS011;4196;48.926;8.964;2023-02-13T08:04:46;20.90;;;9.17;;
8317;SDS011;4196;48.926;8.964;2023-02-13T08:07:33;17.53;;;8.63;;
8317;SDS011;4196;48.926;8.964;2023-02-13T08:10:20;24.73;;;8.67;;
8317;SDS011;4196;48.926;8.964;2023-02-13T08:13:25;21.50;;;8.53;;
8317;SDS011;4196;48.926;8.964;2023-02-13T08:16:12;19.70;;;7.97;;
8317;SDS011;4196;48.926;8.964;2023-02-13T08:18:58;24.93;;;8.60;;
8317;SDS011;4196;48.926;8.964;2023-02-13T08:21:45;17.07;;;6.67;;
8317;SDS011;4196;48.926;8.964;2023-02-13T08:24:31;17.90;;;8.03;;
8317;SDS011;4196;48.926;8.964;2023-02-13T08:27:18;13.13;;;7.40;;
8317;SDS011;4196;48.926;8.964;2023-02-13T08:30:05;16.43;;;7.90;;
8317;SDS011;4196;48.926;8.964;2023-02-13T08:32:52;14.50;;;8.60;;
8317;SDS011;4196;48.926;8.964;2023-02-13T08:35:39;14.90;;;9.40;;
8317;SDS011;4196;48.926;8.964;2023-02-13T08:38:25;18.73;;;9.27;;
8317;SDS011;4196;48.926;8.964;2023-02-13T08:41:12;16.57;;;8.67;;
8317;SDS011;4196;48.926;8.964;2023-02-13T08:43:58;18.93;;;9.23;;
8317;SDS011;4196;48.926;8.964;2023-02-13T08:46:45;17.03;;;9.77;;
8317;SDS011;4196;48.926;8.964;2023-02-13T08:49:31;24.00;;;8.43;;
8317;SDS011;4196;48.926;8.964;2023-02-13T08:52:19;17.73;;;8.67;;
8317;SDS011;4196;48.926;8.964;2023-02-13T08:55:05;16.10;;;8.60;;
8317;SDS011;4196;48.926;8.964;2023-02-13T08:57:51;15.97;;;7.43;;
8317;SDS011;4196;48.926;8.964;2023-02-13T09:00:38;14.93;;;7.73;;
8317;SDS011;4196;48.926;8.964;2023-02-13T09:03:24;14.03;;;8.47;;
8317;SDS011;4196;48.926;8.964;2023-02-13T09:06:11;14.50;;;8.37;;
8317;SDS011;4196;48.926;8.964;2023-02-13T09:08:57;13.67;;;8.80;;
8317;SDS011;4196;48.926;8.964;2023-02-13T09:11:43;14.83;;;7.47;;
8317;SDS011;4196;48.926;8.964;2023-02-13T09:14:30;15.17;;;8.37;;
8317;SDS011;4196;48.926;8.964;2023-02-13T09:17:16;15.87;;;8.60;;
8317;SDS011;4196;48.926;8.964;2023-02-13T09:20:04;20.43;;;9.30;;
8317;SDS011;4196;48.926;8.964;2023-02-13T09:22:51;17.73;;;9.80;;
8317;SDS011;4196;48.926;8.964;2023-02-13T09:25:40;15.77;;;10.50;;
8317;SDS011;4196;48.926;8.964;2023-02-13T09:28:27;18.43;;;9.83;;
8317;SDS011;4196;48.926;8.964;2023-02-13T09:31:16;20.77;;;10.00;;
8317;SDS011;4196;48.926;8.964;2023-02-13T09:34:04;19.63;;;9.57;;
8317;SDS011;4196;48.926;8.964;2023-02-13T09:36:51;20.43;;;10.20;;
8317;SDS011;4196;48.926;8.964;2023-02-13T09:39:38;20.43;;;9.83;;
8317;SDS011;4196;48.926;8.964;2023-02-13T09:42:25;19.30;;;10.83;;
8317;SDS011;4196;48.926;8.964;2023-02-13T09:45:16;21.70;;;12.63;;
8317;SDS011;4196;48.926;8.964;2023-02-13T09:48:07;21.23;;;11.77;;
8317;SDS011;4196;48.926;8.964;2023-02-13T09:51:00;24.23;;;12.03;;
8317;SDS011;4196;48.926;8.964;2023-02-13T09:53:58;27.40;;;12.40;;
8317;SDS011;4196;48.926;8.964;2023-02-13T09:56:49;26.00;;;12.00;;
8317;SDS011;4196;48.926;8.964;2023-02-13T10:05:51;24.20;;;12.20;;
8317;SDS011;4196;48.926;8.964;2023-02-13T10:09:03;22.83;;;12.87;;
8317;SDS011;4196;48.926;8.964;2023-02-13T10:12:19;24.30;;;12.23;;
8317;SDS011;4196;48.926;8.964;2023-02-13T10:18:02;19.77;;;11.43;;
8317;SDS011;4196;48.926;8.964;2023-02-13T10:20:55;24.37;;;11.87;;
8317;SDS011;4196;48.926;8.964;2023-02-13T10:23:49;23.93;;;11.33;;
8317;SDS011;4196;48.926;8.964;2023-02-13T10:26:42;20.57;;;11.20;;
8317;SDS011;4196;48.926;8.964;2023-02-13T10:33:00;20.77;;;10.77;;
8317;SDS011;4196;48.926;8.964;2023-02-13T10:36:25;18.23;;;9.47;;
8317;SDS011;4196;48.926;8.964;2023-02-13T10:39:20;22.47;;;9.57;;
8317;SDS011;4196;48.926;8.964;2023-02-13T10:42:20;18.47;;;10.97;;
8317;SDS011;4196;48.926;8.964;2023-02-13T10:45:18;19.73;;;9.83;;
8317;SDS011;4196;48.926;8.964;2023-02-13T10:48:28;20.20;;;10.10;;
8317;SDS011;4196;48.926;8.964;2023-02-13T10:51:41;20.63;;;10.03;;
8317;SDS011;4196;48.926;8.964;2023-02-13T11:03:41;13.33;;;8.90;;
8317;SDS011;4196;48.926;8.964;2023-02-13T11:06:28;19.70;;;9.80;;
8317;SDS011;4196;48.926;8.964;2023-02-13T11:09:15;16.23;;;9.10;;
8317;SDS011;4196;48.926;8.964;2023-02-13T11:15:25;21.30;;;9.17;;
8317;SDS011;4196;48.926;8.964;2023-02-13T11:18:17;16.60;;;8.30;;
8317;SDS011;4196;48.926;8.964;2023-02-13T11:21:10;17.57;;;10.43;;
8317;SDS011;4196;48.926;8.964;2023-02-13T11:24:04;17.77;;;9.30;;
8317;SDS011;4196;48.926;8.964;2023-02-13T11:26:58;16.73;;;9.43;;
8317;SDS011;4196;48.926;8.964;2023-02-13T11:29:52;21.00;;;8.40;;
8317;SDS011;4196;48.926;8.964;2023-02-13T11:32:40;18.67;;;9.13;;
8317;SDS011;4196;48.926;8.964;2023-02-13T11:41:07;16.30;;;7.70;;
8317;SDS011;4196;48.926;8.964;2023-02-13T11:44:01;18.00;;;9.27;;
8317;SDS011;4196;48.926;8.964;2023-02-13T11:46:50;13.87;;;6.93;;
8317;SDS011;4196;48.926;8.964;2023-02-13T11:49:38;13.50;;;7.73;;
8317;SDS011;4196;48.926;8.964;2023-02-13T11:52:31;13.57;;;7.27;;
8317;SDS011;4196;48.926;8.964;2023-02-13T11:58:23;15.73;;;7.90;;
8317;SDS011;4196;48.926;8.964;2023-02-13T12:04:06;11.83;;;6.10;;
8317;SDS011;4196;48.926;8.964;2023-02-13T12:07:05;12.17;;;6.37;;
8317;SDS011;4196;48.926;8.964;2023-02-13T12:16:00;11.73;;;6.87;;
8317;SDS011;4196;48.926;8.964;2023-02-13T12:18:51;12.90;;;6.60;;
8317;SDS011;4196;48.926;8.964;2023-02-13T12:22:03;9.10;;;5.23;;
8317;SDS011;4196;48.926;8.964;2023-02-13T12:44:02;8.47;;;5.30;;
8317;SDS011;4196;48.926;8.964;2023-02-13T12:53:11;10.40;;;6.00;;
8317;SDS011;4196;48.926;8.964;2023-02-13T13:05:46;11.27;;;6.17;;
8317;SDS011;4196;48.926;8.964;2023-02-13T13:09:34;7.67;;;4.90;;
8317;SDS011;4196;48.926;8.964;2023-02-13T13:24:38;7.27;;;4.77;;
8317;SDS011;4196;48.926;8.964;2023-02-13T13:27:35;9.80;;;5.47;;
8317;SDS011;4196;48.926;8.964;2023-02-13T13:30:30;6.77;;;4.60;;
8317;SDS011;4196;48.926;8.964;2023-02-13T13:33:22;9.47;;;5.67;;
8317;SDS011;4196;48.926;8.964;2023-02-13T13:48:32;9.67;;;5.73;;
8317;SDS011;4196;48.926;8.964;2023-02-13T13:51:32;11.20;;;6.13;;
8317;SDS011;4196;48.926;8.964;2023-02-13T13:54:21;10.43;;;5.67;;
8317;SDS011;4196;48.926;8.964;2023-02-13T13:57:10;10.13;;;5.97;;
8317;SDS011;4196;48.926;8.964;2023-02-13T14:00:41;11.87;;;6.60;;
8317;SDS011;4196;48.926;8.964;2023-02-13T14:03:23;13.83;;;6.03;;
8317;SDS011;4196;48.926;8.964;2023-02-13T14:06:21;9.63;;;5.53;;
8317;SDS011;4196;48.926;8.964;2023-02-13T14:18:20;8.47;;;5.43;;
8317;SDS011;4196;48.926;8.964;2023-02-13T14:21:08;11.30;;;6.17;;
8317;SDS011;4196;48.926;8.964;2023-02-13T14:23:55;9.13;;;6.70;;
8317;SDS011;4196;48.926;8.964;2023-02-13T14:26:49;8.57;;;5.53;;
8317;SDS011;4196;48.926;8.964;2023-02-13T14:29:50;10.00;;;5.93;;
8317;SDS011;4196;48.926;8.964;2023-02-13T14:32:37;7.70;;;5.37;;
8317;SDS011;4196;48.926;8.964;2023-02-13T14:35:27;13.33;;;6.73;;
8317;SDS011;4196;48.926;8.964;2023-02-13T14:38:20;13.37;;;7.17;;
8317;SDS011;4196;48.926;8.964;2023-02-13T14:41:39;17.93;;;7.97;;
8317;SDS011;4196;48.926;8.964;2023-02-13T14:47:21;10.20;;;6.10;;
8317;SDS011;4196;48.926;8.964;2023-02-13T14:50:16;10.60;;;5.70;;
8317;SDS011;4196;48.926;8.964;2023-02-13T14:53:08;9.20;;;5.20;;
8317;SDS011;4196;48.926;8.964;2023-02-13T14:56:05;8.37;;;5.23;;
8317;SDS011;4196;48.926;8.964;2023-02-13T14:59:03;7.20;;;5.30;;
8317;SDS011;4196;48.926;8.964;2023-02-13T15:01:59;11.80;;;5.10;;
8317;SDS011;4196;48.926;8.964;2023-02-13T15:04:54;10.03;;;6.37;;
8317;SDS011;4196;48.926;8.964;2023-02-13T15:10:54;7.23;;;4.77;;
8317;SDS011;4196;48.926;8.964;2023-02-13T15:13:41;6.77;;;4.70;;
8317;SDS011;4196;48.926;8.964;2023-02-13T15:16:27;9.27;;;5.30;;
8317;SDS011;4196;48.926;8.964;2023-02-13T15:19:15;8.43;;;4.77;;
8317;SDS011;4196;48.926;8.964;2023-02-13T15:22:03;8.03;;;4.77;;
8317;SDS011;4196;48.926;8.964;2023-02-13T15:24:51;6.87;;;4.60;;
8317;SDS011;4196;48.926;8.964;2023-02-13T15:27:42;6.27;;;4.60;;
8317;SDS011;4196;48.926;8.964;2023-02-13T15:30:30;6.40;;;4.93;;
8317;SDS011;4196;48.926;8.964;2023-02-13T15:33:22;9.00;;;3.73;;
8317;SDS011;4196;48.926;8.964;2023-02-13T15:36:17;6.37;;;3.50;;
8317;SDS011;4196;48.926;8.964;2023-02-13T15:39:14;6.73;;;3.93;;
8317;SDS011;4196;48.926;8.964;2023-02-13T15:42:03;7.83;;;4.17;;
8317;SDS011;4196;48.926;8.964;2023-02-13T15:44:51;6.53;;;4.20;;
8317;SDS011;4196;48.926;8.964;2023-02-13T15:47:42;7.70;;;4.90;;
8317;SDS011;4196;48.926;8.964;2023-02-13T15:50:32;6.03;;;3.90;;
8317;SDS011;4196;48.926;8.964;2023-02-13T15:53:21;7.70;;;4.20;;
8317;SDS011;4196;48.926;8.964;2023-02-13T15:56:11;8.43;;;4.60;;
8317;SDS011;4196;48.926;8.964;2023-02-13T15:59:00;7.07;;;4.97;;
8317;SDS011;4196;48.926;8.964;2023-02-13T16:01:48;6.70;;;4.00;;
8317;SDS011;4196;48.926;8.964;2023-02-13T16:04:36;9.43;;;5.03;;
8317;SDS011;4196;48.926;8.964;2023-02-13T16:07:25;6.80;;;4.27;;
8317;SDS011;4196;48.926;8.964;2023-02-13T16:13:19;8.17;;;4.90;;
8317;SDS011;4196;48.926;8.964;2023-02-13T16:16:09;7.47;;;4.73;;
8317;SDS011;4196;48.926;8.964;2023-02-13T16:18:56;9.27;;;5.37;;
8317;SDS011;4196;48.926;8.964;2023-02-13T16:21:44;8.63;;;5.90;;
8317;SDS011;4196;48.926;8.964;2023-02-13T16:24:33;10.37;;;5.37;;
8317;SDS011;4196;48.926;8.964;2023-02-13T16:27:23;11.10;;;5.57;;
8317;SDS011;4196;48.926;8.964;2023-02-13T16:38:56;9.53;;;4.90;;
8317;SDS011;4196;48.926;8.964;2023-02-13T16:41:42;10.23;;;6.00;;
8317;SDS011;4196;48.926;8.964;2023-02-13T16:44:30;10.13;;;5.10;;
8317;SDS011;4196;48.926;8.964;2023-02-13T16:47:23;7.73;;;4.90;;
8317;SDS011;4196;48.926;8.964;2023-02-13T16:50:13;12.00;;;7.50;;
8317;SDS011;4196;48.926;8.964;2023-02-13T16:53:01;9.00;;;4.90;;
8317;SDS011;4196;48.926;8.964;2023-02-13T16:55:55;9.37;;;4.97;;
8317;SDS011;4196;48.926;8.964;2023-02-13T16:58:46;12.10;;;6.20;;
8317;SDS011;4196;48.926;8.964;2023-02-13T17:01:32;13.40;;;6.50;;
8317;SDS011;4196;48.926;8.964;2023-02-13T17:04:23;16.40;;;7.10;;
8317;SDS011;4196;48.926;8.964;2023-02-13T17:07:11;11.80;;;5.93;;
8317;SDS011;4196;48.926;8.964;2023-02-13T17:10:00;10.33;;;5.90;;
8317;SDS011;4196;48.926;8.964;2023-02-13T17:12:52;16.93;;;6.70;;
8317;SDS011;4196;48.926;8.964;2023-02-13T17:15:40;14.47;;;7.63;;
8317;SDS011;4196;48.926;8.964;2023-02-13T17:18:29;10.77;;;6.27;;
8317;SDS011;4196;48.926;8.964;2023-02-13T17:21:15;23.00;;;8.33;;
8317;SDS011;4196;48.926;8.964;2023-02-13T17:24:02;15.87;;;7.00;;
8317;SDS011;4196;48.926;8.964;2023-02-13T17:26:48;14.60;;;7.30;;
8317;SDS011;4196;48.926;8.964;2023-02-13T17:29:35;11.67;;;7.03;;
8317;SDS011;4196;48.926;8.964;2023-02-13T17:32:22;11.63;;;5.50;;
8317;SDS011;4196;48.926;8.964;2023-02-13T17:35:11;10.53;;;6.70;;
8317;SDS011;4196;48.926;8.964;2023-02-13T17:37:59;17.27;;;7.23;;
8317;SDS011;4196;48.926;8.964;2023-02-13T17:40:45;15.10;;;5.73;;
8317;SDS011;4196;48.926;8.964;2023-02-13T17:43:32;12.33;;;6.43;;
8317;SDS011;4196;48.926;8.964;2023-02-13T17:46:18;13.40;;;7.43;;
8317;SDS011;4196;48.926;8.964;2023-02-13T17:49:05;14.07;;;6.57;;
8317;SDS011;4196;48.926;8.964;2023-02-13T17:51:51;14.07;;;7.37;;
8317;SDS011;4196;48.926;8.964;2023-02-13T17:54:37;13.53;;;6.83;;
8317;SDS011;4196;48.926;8.964;2023-02-13T17:57:24;15.87;;;7.13;;
8317;SDS011;4196;48.926;8.964;2023-02-13T18:00:10;13.90;;;6.23;;
8317;SDS011;4196;48.926;8.964;2023-02-13T18:02:57;14.00;;;6.03;;
8317;SDS011;4196;48.926;8.964;2023-02-13T18:05:46;12.03;;;7.47;;
8317;SDS011;4196;48.926;8.964;2023-02-13T18:08:33;10.77;;;6.90;;
8317;SDS011;4196;48.926;8.964;2023-02-13T18:11:20;13.60;;;6.20;;
8317;SDS011;4196;48.926;8.964;2023-02-13T18:14:06;10.63;;;6.00;;
8317;SDS011;4196;48.926;8.964;2023-02-13T18:16:52;10.23;;;6.43;;
8317;SDS011;4196;48.926;8.964;2023-02-13T18:19:39;11.60;;;5.97;;
8317;SDS011;4196;48.926;8.964;2023-02-13T18:22:25;13.30;;;6.57;;
8317;SDS011;4196;48.926;8.964;2023-02-13T18:25:12;9.97;;;5.93;;
8317;SDS011;4196;48.926;8.964;2023-02-13T18:27:58;15.30;;;8.30;;
8317;SDS011;4196;48.926;8.964;2023-02-13T18:30:45;11.10;;;6.63;;
8317;SDS011;4196;48.926;8.964;2023-02-13T18:33:31;11.67;;;6.43;;
8317;SDS011;4196;48.926;8.964;2023-02-13T18:36:18;11.43;;;6.30;;
8317;SDS011;4196;48.926;8.964;2023-02-13T18:39:04;11.33;;;7.40;;
8317;SDS011;4196;48.926;8.964;2023-02-13T18:41:53;17.03;;;8.60;;
8317;SDS011;4196;48.926;8.964;2023-02-13T18:44:39;13.13;;;6.80;;
8317;SDS011;4196;48.926;8.964;2023-02-13T18:47:26;11.97;;;6.93;;
8317;SDS011;4196;48.926;8.964;2023-02-13T18:50:13;14.80;;;7.43;;
8317;SDS011;4196;48.926;8.964;2023-02-13T18:52:59;13.57;;;7.83;;
8317;SDS011;4196;48.926;8.964;2023-02-13T18:55:46;12.07;;;6.63;;
8317;SDS011;4196;48.926;8.964;2023-02-13T18:58:32;15.77;;;8.10;;
8317;SDS011;4196;48.926;8.964;2023-02-13T19:01:20;13.67;;;7.93;;
8317;SDS011;4196;48.926;8.964;2023-02-13T19:04:06;16.33;;;8.13;;
8317;SDS011;4196;48.926;8.964;2023-02-13T19:06:53;12.33;;;7.80;;
8317;SDS011;4196;48.926;8.964;2023-02-13T19:09:39;15.43;;;7.33;;
8317;SDS011;4196;48.926;8.964;2023-02-13T19:12:26;12.87;;;7.77;;
8317;SDS011;4196;48.926;8.964;2023-02-13T19:15:12;14.93;;;8.03;;
8317;SDS011;4196;48.926;8.964;2023-02-13T19:17:58;17.50;;;9.47;;
8317;SDS011;4196;48.926;8.964;2023-02-13T19:20:45;14.30;;;8.13;;
8317;SDS011;4196;48.926;8.964;2023-02-13T19:23:31;17.77;;;8.93;;
8317;SDS011;4196;48.926;8.964;2023-02-13T19:26:23;16.10;;;8.13;;
8317;SDS011;4196;48.926;8.964;2023-02-13T19:29:10;18.27;;;8.60;;
8317;SDS011;4196;48.926;8.964;2023-02-13T19:31:57;14.53;;;7.63;;
8317;SDS011;4196;48.926;8.964;2023-02-13T19:34:43;17.67;;;8.03;;
8317;SDS011;4196;48.926;8.964;2023-02-13T19:37:30;16.90;;;8.33;;
8317;SDS011;4196;48.926;8.964;2023-02-13T19:40:29;16.90;;;7.83;;
8317;SDS011;4196;48.926;8.964;2023-02-13T19:43:15;14.87;;;7.77;;
8317;SDS011;4196;48.926;8.964;2023-02-13T19:46:02;25.83;;;9.40;;
8317;SDS011;4196;48.926;8.964;2023-02-13T19:48:50;13.97;;;7.53;;
8317;SDS011;4196;48.926;8.964;2023-02-13T19:51:37;15.30;;;7.37;;
8317;SDS011;4196;48.926;8.964;2023-02-13T19:54:23;17.87;;;8.87;;
8317;SDS011;4196;48.926;8.964;2023-02-13T19:57:10;16.23;;;8.70;;